sensor_id;sensor_type;location;lat;lon;timestamp;pressure;altitude;pressure_sealevel;temperature;humidity
41800;BME280;27468;47.460;19.034;2024-01-16T00:00:22;99259.16;;;1.13;74.10
41800;BME280;27468;47.460;19.034;2024-01-16T00:02:48;99240.97;;;1.10;74.76
41800;BME280;27468;47.460;19.034;2024-01-16T00:05:13;99266.03;;;1.23;75.18
41800;BME280;27468;47.460;19.034;2024-01-16T00:07:39;99236.66;;;0.93;75.37
41800;BME280;27468;47.460;19.034;2024-01-16T00:10:07;99253.94;;;1.04;75.66
41800;BME280;27468;47.460;19.034;2024-01-16T00:12:33;99279.03;;;1.08;76.17
41800;BME280;27468;47.460;19.034;2024-01-16T00:14:58;99247.03;;;0.93;76.27
41800;BME280;27468;47.460;19.034;2024-01-16T00:17:23;99294.59;;;1.18;76.65
41800;BME280;27468;47.460;19.034;2024-01-16T00:19:49;99234.03;;;0.86;76.92
41800;BME280;27468;47.460;19.034;2024-01-16T00:22:14;99248.75;;;0.88;77.24
41800;BME280;27468;47.460;19.034;2024-01-16T00:24:39;99260.84;;;0.82;77.86
41800;BME280;27468;47.460;19.034;2024-01-16T00:27:05;99306.72;;;1.03;77.93
41800;BME280;27468;47.460;19.034;2024-01-16T00:29:30;99271.22;;;0.80;78.09
41800;BME280;27468;47.460;19.034;2024-01-16T00:31:56;99308.44;;;0.91;78.43
41800;BME280;27468;47.460;19.034;2024-01-16T00:34:21;99290.22;;;0.75;78.64
41800;BME280;27468;47.460;19.034;2024-01-16T00:36:47;99282.44;;;0.67;78.86
41800;BME280;27468;47.460;19.034;2024-01-16T00:39:12;99308.38;;;0.70;79.20
41800;BME280;27468;47.460;19.034;2024-01-16T00:41:38;99285.00;;;0.61;79.64
41800;BME280;27468;47.460;19.034;2024-01-16T00:44:04;99327.44;;;0.78;80.07
41800;BME280;27468;47.460;19.034;2024-01-16T00:46:29;99298.00;;;0.67;80.13
41800;BME280;27468;47.460;19.034;2024-01-16T00:48:55;99309.25;;;0.75;80.26
41800;BME280;27468;47.460;19.034;2024-01-16T00:51:20;99335.22;;;0.84;80.91
41800;BME280;27468;47.460;19.034;2024-01-16T00:53:47;99322.19;;;0.64;80.84
41800;BME280;27468;47.460;19.034;2024-01-16T00:56:12;99326.56;;;0.85;80.48
41800;BME280;27468;47.460;19.034;2024-01-16T00:58:38;99340.41;;;0.83;80.56
41800;BME280;27468;47.460;19.034;2024-01-16T01:01:03;99303.16;;;0.61;80.33
41800;BME280;27468;47.460;19.034;2024-01-16T01:03:29;99304.91;;;0.70;79.87
41800;BME280;27468;47.460;19.034;2024-01-16T01:05:55;99355.16;;;0.97;79.25
41800;BME280;27468;47.460;19.034;2024-01-16T01:08:20;99331.78;;;0.85;79.50
41800;BME280;27468;47.460;19.034;2024-01-16T01:10:45;99373.31;;;1.01;79.48
41800;BME280;27468;47.460;19.034;2024-01-16T01:13:11;99338.66;;;0.71;79.11
41800;BME280;27468;47.460;19.034;2024-01-16T01:15:36;99364.63;;;0.86;79.27
41800;BME280;27468;47.460;19.034;2024-01-16T01:18:01;99381.13;;;1.01;79.08
41800;BME280;27468;47.460;19.034;2024-01-16T01:20:27;99347.31;;;0.78;79.28
41800;BME280;27468;47.460;19.034;2024-01-16T01:22:52;99338.63;;;0.68;79.21
41800;BME280;27468;47.460;19.034;2024-01-16T01:25:18;99386.25;;;0.88;78.92
41800;BME280;27468;47.460;19.034;2024-01-16T01:27:43;99371.53;;;0.78;78.88
41800;BME280;27468;47.460;19.034;2024-01-16T01:30:09;99362.03;;;0.82;78.53
41800;BME280;27468;47.460;19.034;2024-01-16T01:32:38;99355.09;;;0.81;78.49
41800;BME280;27468;47.460;19.034;2024-01-16T01:35:04;99405.34;;;1.06;78.17
41800;BME280;27468;47.460;19.034;2024-01-16T01:37:30;99384.56;;;0.93;78.02
41800;BME280;27468;47.460;19.034;2024-01-16T01:39:55;99361.19;;;0.87;77.60
41800;BME280;27468;47.460;19.034;2024-01-16T01:42:20;99354.22;;;0.77;77.89
41800;BME280;27468;47.460;19.034;2024-01-16T01:44:47;99362.91;;;0.82;77.77
41800;BME280;27468;47.460;19.034;2024-01-16T01:47:13;99370.69;;;0.85;77.49
41800;BME280;27468;47.460;19.034;2024-01-16T01:49:38;99343.81;;;0.66;77.42
41800;BME280;27468;47.460;19.034;2024-01-16T01:52:04;99339.50;;;0.65;77.59
41800;BME280;27468;47.460;19.034;2024-01-16T01:54:32;99343.81;;;0.66;77.57
41800;BME280;27468;47.460;19.034;2024-01-16T01:56:58;99346.41;;;0.63;77.71
41800;BME280;27468;47.460;19.034;2024-01-16T01:59:24;99399.25;;;0.91;77.61
41800;BME280;27468;47.460;19.034;2024-01-16T02:01:51;99397.50;;;0.84;77.48
41800;BME280;27468;47.460;19.034;2024-01-16T02:04:20;99373.22;;;0.69;77.83
41800;BME280;27468;47.460;19.034;2024-01-16T02:06:46;99396.59;;;0.75;77.85
41800;BME280;27468;47.460;19.034;2024-01-16T02:09:12;99393.97;;;0.65;77.72
41800;BME280;27468;47.460;19.034;2024-01-16T02:11:42;99428.63;;;0.83;77.65
41800;BME280;27468;47.460;19.034;2024-01-16T02:14:08;99409.56;;;0.75;77.83
41800;BME280;27468;47.460;19.034;2024-01-16T02:16:38;99421.66;;;0.71;78.01
41800;BME280;27468;47.460;19.034;2024-01-16T02:19:04;99408.66;;;0.57;78.05
41800;BME280;27468;47.460;19.034;2024-01-16T02:21:39;99429.41;;;0.65;78.28
41800;BME280;27468;47.460;19.034;2024-01-16T02:24:05;99435.44;;;0.62;78.29
41800;BME280;27468;47.460;19.034;2024-01-16T02:26:32;99422.44;;;0.52;78.57
41800;BME280;27468;47.460;19.034;2024-01-16T02:28:57;99396.41;;;0.30;78.73
41800;BME280;27468;47.460;19.034;2024-01-16T02:31:23;99437.09;;;0.44;78.89
41800;BME280;27468;47.460;19.034;2024-01-16T02:33:48;99456.16;;;0.50;79.08
41800;BME280;27468;47.460;19.034;2024-01-16T02:36:13;99449.22;;;0.48;78.95
41800;BME280;27468;47.460;19.034;2024-01-16T02:38:39;99461.38;;;0.56;79.17
41800;BME280;27468;47.460;19.034;2024-01-16T02:41:04;99454.41;;;0.46;79.19
41800;BME280;27468;47.460;19.034;2024-01-16T02:43:31;99461.31;;;0.46;79.57
41800;BME280;27468;47.460;19.034;2024-01-16T02:45:56;99477.78;;;0.51;79.65
41800;BME280;27468;47.460;19.034;2024-01-16T02:48:23;99468.25;;;0.48;79.72
41800;BME280;27468;47.460;19.034;2024-01-16T02:50:48;99472.56;;;0.46;79.50
41800;BME280;27468;47.460;19.034;2024-01-16T02:53:14;99465.63;;;0.44;79.50
41800;BME280;27468;47.460;19.034;2024-01-16T02:55:39;99477.75;;;0.48;79.27
41800;BME280;27468;47.460;19.034;2024-01-16T02:58:04;99475.16;;;0.46;79.68
41800;BME280;27468;47.460;19.034;2024-01-16T03:00:30;99470.75;;;0.36;79.14
41800;BME280;27468;47.460;19.034;2024-01-16T03:02:56;99473.38;;;0.39;79.25
41800;BME280;27468;47.460;19.034;2024-01-16T03:05:21;99449.91;;;0.21;79.18
41800;BME280;27468;47.460;19.034;2024-01-16T03:07:46;99493.25;;;0.40;79.80
41800;BME280;27468;47.460;19.034;2024-01-16T03:10:12;99467.19;;;0.20;79.67
41800;BME280;27468;47.460;19.034;2024-01-16T03:12:37;99470.63;;;0.19;79.75
41800;BME280;27468;47.460;19.034;2024-01-16T03:15:03;99461.06;;;0.09;79.74
41800;BME280;27468;47.460;19.034;2024-01-16T03:17:28;99476.66;;;0.15;79.85
41800;BME280;27468;47.460;19.034;2024-01-16T03:19:54;99478.34;;;0.10;80.12
41800;BME280;27468;47.460;19.034;2024-01-16T03:22:19;99483.53;;;0.13;80.35
41800;BME280;27468;47.460;19.034;2024-01-16T03:24:44;99467.91;;;-0.01;80.45
41800;BME280;27468;47.460;19.034;2024-01-16T03:27:11;99488.66;;;0.03;80.38
41800;BME280;27468;47.460;19.034;2024-01-16T03:29:36;99516.34;;;0.11;80.45
41800;BME280;27468;47.460;19.034;2024-01-16T03:32:01;99477.38;;;-0.07;80.35
41800;BME280;27468;47.460;19.034;2024-01-16T03:34:28;99457.38;;;-0.20;80.44
41800;BME280;27468;47.460;19.034;2024-01-16T03:36:53;99499.84;;;-0.05;80.29
41800;BME280;27468;47.460;19.034;2024-01-16T03:39:19;99524.16;;;0.14;80.09
41800;BME280;27468;47.460;19.034;2024-01-16T03:41:44;99491.22;;;-0.04;79.69
41800;BME280;27468;47.460;19.034;2024-01-16T03:44:10;99496.34;;;-0.08;79.58
41800;BME280;27468;47.460;19.034;2024-01-16T03:46:35;99508.50;;;0.00;79.54
41800;BME280;27468;47.460;19.034;2024-01-16T03:49:00;99506.78;;;-0.01;79.59
41800;BME280;27468;47.460;19.034;2024-01-16T03:51:25;99512.00;;;0.06;79.18
41800;BME280;27468;47.460;19.034;2024-01-16T03:53:51;99514.66;;;0.15;79.12
41800;BME280;27468;47.460;19.034;2024-01-16T03:56:16;99510.34;;;0.15;78.89
41800;BME280;27468;47.460;19.034;2024-01-16T03:58:42;99499.88;;;0.03;78.69
41800;BME280;27468;47.460;19.034;2024-01-16T04:01:08;99529.31;;;0.10;78.90
41800;BME280;27468;47.460;19.034;2024-01-16T04:03:33;99535.38;;;0.12;78.70
41800;BME280;27468;47.460;19.034;2024-01-16T04:06:00;99524.09;;;0.08;78.48
41800;BME280;27468;47.460;19.034;2024-01-16T04:08:25;99537.09;;;0.11;78.35
41800;BME280;27468;47.460;19.034;2024-01-16T04:10:50;99523.28;;;0.12;78.33
41800;BME280;27468;47.460;19.034;2024-01-16T04:13:16;99497.25;;;-0.05;78.10
41800;BME280;27468;47.460;19.034;2024-01-16T04:15:41;99511.97;;;-0.01;78.07
41800;BME280;27468;47.460;19.034;2024-01-16T04:18:06;99557.03;;;0.18;77.95
41800;BME280;27468;47.460;19.034;2024-01-16T04:20:32;99548.38;;;0.16;77.27
41800;BME280;27468;47.460;19.034;2024-01-16T04:22:57;99563.97;;;0.22;77.12
41800;BME280;27468;47.460;19.034;2024-01-16T04:25:23;99552.72;;;0.20;76.89
41800;BME280;27468;47.460;19.034;2024-01-16T04:27:49;99549.22;;;0.15;76.82
41800;BME280;27468;47.460;19.034;2024-01-16T04:30:14;99576.91;;;0.19;76.80
41800;BME280;27468;47.460;19.034;2024-01-16T04:32:40;99555.13;;;0.00;76.69
41800;BME280;27468;47.460;19.034;2024-01-16T04:35:05;99576.84;;;0.12;76.74
41800;BME280;27468;47.460;19.034;2024-01-16T04:37:31;99527.38;;;-0.16;76.20
41800;BME280;27468;47.460;19.034;2024-01-16T04:39:56;99573.34;;;0.08;76.09
41800;BME280;27468;47.460;19.034;2024-01-16T04:42:23;99522.06;;;-0.29;76.11
41800;BME280;27468;47.460;19.034;2024-01-16T04:44:48;99595.00;;;0.15;76.14
41800;BME280;27468;47.460;19.034;2024-01-16T04:47:13;99579.38;;;0.07;76.04
41800;BME280;27468;47.460;19.034;2024-01-16T04:49:41;99581.06;;;-0.01;75.98
41800;BME280;27468;47.460;19.034;2024-01-16T04:52:06;99586.22;;;0.00;75.81
41800;BME280;27468;47.460;19.034;2024-01-16T04:54:32;99594.06;;;0.08;75.88
41800;BME280;27468;47.460;19.034;2024-01-16T04:56:57;99587.09;;;0.01;75.27
41800;BME280;27468;47.460;19.034;2024-01-16T04:59:23;99612.31;;;0.19;74.94
41800;BME280;27468;47.460;19.034;2024-01-16T05:01:48;99582.78;;;0.03;75.05
41800;BME280;27468;47.460;19.034;2024-01-16T05:04:13;99553.25;;;-0.19;74.72
41800;BME280;27468;47.460;19.034;2024-01-16T05:06:39;99616.50;;;0.06;74.83
41800;BME280;27468;47.460;19.034;2024-01-16T05:09:04;99592.31;;;0.06;74.61
41800;BME280;27468;47.460;19.034;2024-01-16T05:11:30;99603.56;;;0.06;74.46
41800;BME280;27468;47.460;19.034;2024-01-16T05:13:55;99598.31;;;-0.05;74.05
41800;BME280;27468;47.460;19.034;2024-01-16T05:16:26;99653.00;;;0.24;74.07
41800;BME280;27468;47.460;19.034;2024-01-16T05:18:52;99652.97;;;0.21;74.04
41800;BME280;27468;47.460;19.034;2024-01-16T05:21:19;99625.97;;;-0.01;74.27
41800;BME280;27468;47.460;19.034;2024-01-16T05:23:44;99658.13;;;0.20;74.23
41800;BME280;27468;47.460;19.034;2024-01-16T05:26:10;99645.84;;;0.04;74.06
41800;BME280;27468;47.460;19.034;2024-01-16T05:28:35;99640.63;;;-0.03;74.24
41800;BME280;27468;47.460;19.034;2024-01-16T05:31:00;99644.09;;;-0.02;74.16
41800;BME280;27468;47.460;19.034;2024-01-16T05:33:26;99651.88;;;-0.02;73.84
41800;BME280;27468;47.460;19.034;2024-01-16T05:35:51;99686.53;;;0.11;74.04
41800;BME280;27468;47.460;19.034;2024-01-16T05:38:16;99686.56;;;0.12;74.00
41800;BME280;27468;47.460;19.034;2024-01-16T05:40:42;99652.66;;;-0.09;74.02
41800;BME280;27468;47.460;19.034;2024-01-16T05:43:07;99649.16;;;-0.13;73.61
41800;BME280;27468;47.460;19.034;2024-01-16T05:45:32;99678.69;;;0.03;73.41
41800;BME280;27468;47.460;19.034;2024-01-16T05:47:59;99619.63;;;-0.28;73.29
41800;BME280;27468;47.460;19.034;2024-01-16T05:50:24;99689.88;;;-0.01;73.16
41800;BME280;27468;47.460;19.034;2024-01-16T05:52:50;99679.47;;;-0.06;73.48
41800;BME280;27468;47.460;19.034;2024-01-16T05:55:15;99669.97;;;-0.05;73.31
41800;BME280;27468;47.460;19.034;2024-01-16T05:57:41;99688.03;;;-0.11;73.47
41800;BME280;27468;47.460;19.034;2024-01-16T06:00:09;99651.56;;;-0.28;73.93
41800;BME280;27468;47.460;19.034;2024-01-16T06:02:35;99701.09;;;-0.04;73.67
41800;BME280;27468;47.460;19.034;2024-01-16T06:05:00;99704.47;;;-0.11;73.27
41800;BME280;27468;47.460;19.034;2024-01-16T06:07:25;99686.25;;;-0.17;73.33
41800;BME280;27468;47.460;19.034;2024-01-16T06:09:51;99725.25;;;-0.05;73.03
41800;BME280;27468;47.460;19.034;2024-01-16T06:12:18;99705.31;;;-0.12;73.03
41800;BME280;27468;47.460;19.034;2024-01-16T06:14:44;99733.06;;;-0.02;72.54
41800;BME280;27468;47.460;19.034;2024-01-16T06:17:09;99731.34;;;0.00;72.54
41800;BME280;27468;47.460;19.034;2024-01-16T06:19:34;99738.25;;;-0.03;72.61
41800;BME280;27468;47.460;19.034;2024-01-16T06:22:00;99740.84;;;0.02;72.35
41800;BME280;27468;47.460;19.034;2024-01-16T06:24:25;99706.94;;;-0.18;72.28
41800;BME280;27468;47.460;19.034;2024-01-16T06:26:51;99749.53;;;0.05;72.01
41800;BME280;27468;47.460;19.034;2024-01-16T06:29:16;99762.47;;;0.04;72.34
41800;BME280;27468;47.460;19.034;2024-01-16T06:31:42;99746.00;;;-0.03;71.51
41800;BME280;27468;47.460;19.034;2024-01-16T06:34:07;99715.53;;;-0.22;71.37
41800;BME280;27468;47.460;19.034;2024-01-16T06:36:32;99750.31;;;-0.04;71.18
41800;BME280;27468;47.460;19.034;2024-01-16T06:38:58;99766.88;;;0.09;70.47
41800;BME280;27468;47.460;19.034;2024-01-16T06:41:23;99759.88;;;0.04;70.57
41800;BME280;27468;47.460;19.034;2024-01-16T06:43:48;99759.91;;;0.07;71.02
41800;BME280;27468;47.460;19.034;2024-01-16T06:46:14;99769.34;;;-0.02;70.54
41800;BME280;27468;47.460;19.034;2024-01-16T06:48:39;99793.78;;;0.19;69.96
41800;BME280;27468;47.460;19.034;2024-01-16T06:51:05;99779.78;;;0.06;69.94
41800;BME280;27468;47.460;19.034;2024-01-16T06:53:33;99791.03;;;0.07;70.17
41800;BME280;27468;47.460;19.034;2024-01-16T06:55:59;99771.94;;;-0.02;69.91
41800;BME280;27468;47.460;19.034;2024-01-16T06:58:24;99799.72;;;0.12;69.52
41800;BME280;27468;47.460;19.034;2024-01-16T07:00:49;99785.75;;;0.00;69.37
41800;BME280;27468;47.460;19.034;2024-01-16T07:03:15;99778.81;;;-0.05;68.81
41800;BME280;27468;47.460;19.034;2024-01-16T07:05:40;99806.63;;;0.11;68.77
41800;BME280;27468;47.460;19.034;2024-01-16T07:08:08;99825.00;;;0.28;68.17
41800;BME280;27468;47.460;19.034;2024-01-16T07:10:34;99788.44;;;0.07;68.18
41800;BME280;27468;47.460;19.034;2024-01-16T07:12:59;99788.50;;;0.13;67.74
41800;BME280;27468;47.460;19.034;2024-01-16T07:15:25;99811.00;;;0.15;67.59
41800;BME280;27468;47.460;19.034;2024-01-16T07:17:50;99829.25;;;0.23;67.25
41800;BME280;27468;47.460;19.034;2024-01-16T07:20:15;99807.53;;;0.15;67.32
41800;BME280;27468;47.460;19.034;2024-01-16T07:22:41;99801.53;;;0.17;67.31
41800;BME280;27468;47.460;19.034;2024-01-16T07:25:07;99816.31;;;0.24;67.52
41800;BME280;27468;47.460;19.034;2024-01-16T07:27:33;99814.53;;;0.20;67.26
41800;BME280;27468;47.460;19.034;2024-01-16T07:29:59;99815.47;;;0.25;67.28
41800;BME280;27468;47.460;19.034;2024-01-16T07:32:24;99847.63;;;0.40;67.42
41800;BME280;27468;47.460;19.034;2024-01-16T07:34:49;99843.38;;;0.45;67.21
41800;BME280;27468;47.460;19.034;2024-01-16T07:37:16;99870.34;;;0.63;66.85
41800;BME280;27468;47.460;19.034;2024-01-16T07:39:42;99853.88;;;0.55;66.36
41800;BME280;27468;47.460;19.034;2024-01-16T07:42:08;99830.53;;;0.57;65.68
41800;BME280;27468;47.460;19.034;2024-01-16T07:44:33;99873.09;;;0.74;65.48
41800;BME280;27468;47.460;19.034;2024-01-16T07:46:58;99894.94;;;0.94;65.26
41800;BME280;27468;47.460;19.034;2024-01-16T07:49:24;99858.50;;;0.85;64.94
41800;BME280;27468;47.460;19.034;2024-01-16T07:51:49;99889.84;;;1.04;64.65
41800;BME280;27468;47.460;19.034;2024-01-16T07:54:14;99854.25;;;0.90;64.61
41800;BME280;27468;47.460;19.034;2024-01-16T07:56:40;99890.75;;;1.07;64.44
41800;BME280;27468;47.460;19.034;2024-01-16T07:59:05;99863.00;;;1.02;63.99
41800;BME280;27468;47.460;19.034;2024-01-16T08:01:31;99888.16;;;1.07;63.90
41800;BME280;27468;47.460;19.034;2024-01-16T08:03:56;99872.59;;;1.07;64.12
41800;BME280;27468;47.460;19.034;2024-01-16T08:06:22;99913.53;;;1.36;64.14
41800;BME280;27468;47.460;19.034;2024-01-16T08:08:48;99867.47;;;1.13;63.81
41800;BME280;27468;47.460;19.034;2024-01-16T08:11:14;99912.69;;;1.40;63.43
41800;BME280;27468;47.460;19.034;2024-01-16T08:13:40;99918.88;;;1.51;62.74
41800;BME280;27468;47.460;19.034;2024-01-16T08:16:05;99909.31;;;1.48;63.04
41800;BME280;27468;47.460;19.034;2024-01-16T08:18:31;99925.88;;;1.59;62.75
41800;BME280;27468;47.460;19.034;2024-01-16T08:20:57;99877.22;;;1.42;62.28
41800;BME280;27468;47.460;19.034;2024-01-16T08:23:22;99925.09;;;1.70;61.43
41800;BME280;27468;47.460;19.034;2024-01-16T08:25:47;99905.16;;;1.65;60.90
41800;BME280;27468;47.460;19.034;2024-01-16T08:28:13;99892.19;;;1.75;60.06
41800;BME280;27468;47.460;19.034;2024-01-16T08:30:39;99922.72;;;1.97;59.76
41800;BME280;27468;47.460;19.034;2024-01-16T08:33:04;99916.69;;;2.04;58.24
41800;BME280;27468;47.460;19.034;2024-01-16T08:35:30;99899.31;;;1.98;58.25
41800;BME280;27468;47.460;19.034;2024-01-16T08:37:55;99951.50;;;2.24;57.66
41800;BME280;27468;47.460;19.034;2024-01-16T08:40:20;99942.84;;;2.22;57.41
41800;BME280;27468;47.460;19.034;2024-01-16T08:42:45;99943.72;;;2.26;57.52
41800;BME280;27468;47.460;19.034;2024-01-16T08:45:11;99928.09;;;2.23;56.67
41800;BME280;27468;47.460;19.034;2024-01-16T08:47:36;99927.25;;;2.24;56.58
41800;BME280;27468;47.460;19.034;2024-01-16T08:50:02;99949.00;;;2.43;56.31
41800;BME280;27468;47.460;19.034;2024-01-16T08:52:27;99925.53;;;2.33;55.85
41800;BME280;27468;47.460;19.034;2024-01-16T08:54:53;99941.28;;;2.55;54.85
41800;BME280;27468;47.460;19.034;2024-01-16T08:57:18;99937.88;;;2.67;54.57
41800;BME280;27468;47.460;19.034;2024-01-16T08:59:43;99967.38;;;2.67;54.27
41800;BME280;27468;47.460;19.034;2024-01-16T09:02:09;99962.19;;;2.69;54.08
41800;BME280;27468;47.460;19.034;2024-01-16T09:04:34;99931.75;;;2.58;53.36
41800;BME280;27468;47.460;19.034;2024-01-16T09:07:00;99962.25;;;2.81;53.25
41800;BME280;27468;47.460;19.034;2024-01-16T09:09:25;99937.00;;;2.64;52.55
41800;BME280;27468;47.460;19.034;2024-01-16T09:11:50;99963.97;;;2.82;52.66
41800;BME280;27468;47.460;19.034;2024-01-16T09:14:16;99958.78;;;2.86;52.54
41800;BME280;27468;47.460;19.034;2024-01-16T09:16:41;99948.38;;;2.89;52.28
41800;BME280;27468;47.460;19.034;2024-01-16T09:19:07;99963.19;;;3.09;51.64
41800;BME280;27468;47.460;19.034;2024-01-16T09:21:34;99934.47;;;2.90;51.07
41800;BME280;27468;47.460;19.034;2024-01-16T09:24:00;99976.25;;;3.12;50.56
41800;BME280;27468;47.460;19.034;2024-01-16T09:26:25;99946.63;;;2.91;50.81
41800;BME280;27468;47.460;19.034;2024-01-16T09:28:50;99982.28;;;3.03;50.86
41800;BME280;27468;47.460;19.034;2024-01-16T09:31:16;99977.91;;;3.01;50.83
41800;BME280;27468;47.460;19.034;2024-01-16T09:33:41;99962.25;;;2.93;50.58
41800;BME280;27468;47.460;19.034;2024-01-16T09:36:08;99968.34;;;2.87;50.54
41800;BME280;27468;47.460;19.034;2024-01-16T09:38:34;99946.63;;;2.79;50.73
41800;BME280;27468;47.460;19.034;2024-01-16T09:40:59;99970.06;;;2.84;50.99
41800;BME280;27468;47.460;19.034;2024-01-16T09:43:28;99977.94;;;3.04;51.04
41800;BME280;27468;47.460;19.034;2024-01-16T09:45:55;99927.53;;;2.79;49.82
41800;BME280;27468;47.460;19.034;2024-01-16T09:48:21;99967.50;;;2.99;49.64
41800;BME280;27468;47.460;19.034;2024-01-16T09:50:46;99944.03;;;2.91;49.39
41800;BME280;27468;47.460;19.034;2024-01-16T09:53:12;99943.16;;;2.91;49.20
41800;BME280;27468;47.460;19.034;2024-01-16T09:55:37;99978.03;;;3.25;49.20
41800;BME280;27468;47.460;19.034;2024-01-16T09:58:05;99971.97;;;3.37;48.92
41800;BME280;27468;47.460;19.034;2024-01-16T10:00:31;99968.53;;;3.41;48.69
41800;BME280;27468;47.460;19.034;2024-01-16T10:02:57;99965.91;;;3.54;48.59
41800;BME280;27468;47.460;19.034;2024-01-16T10:05:24;99954.66;;;3.66;48.20
41800;BME280;27468;47.460;19.034;2024-01-16T10:07:51;99972.91;;;3.86;47.77
41800;BME280;27468;47.460;19.034;2024-01-16T10:10:16;99957.28;;;3.87;47.26
41800;BME280;27468;47.460;19.034;2024-01-16T10:12:42;99965.09;;;3.89;47.50
41800;BME280;27468;47.460;19.034;2024-01-16T10:15:09;99970.31;;;3.96;46.70
41800;BME280;27468;47.460;19.034;2024-01-16T10:17:39;99979.00;;;3.91;46.91
41800;BME280;27468;47.460;19.034;2024-01-16T10:20:05;99935.53;;;3.72;47.35
41800;BME280;27468;47.460;19.034;2024-01-16T10:22:31;99957.28;;;3.86;47.49
41800;BME280;27468;47.460;19.034;2024-01-16T10:25:06;99973.78;;;4.06;46.96
41800;BME280;27468;47.460;19.034;2024-01-16T10:27:33;99972.03;;;4.11;46.10
41800;BME280;27468;47.460;19.034;2024-01-16T10:29:59;99955.50;;;4.12;45.46
41800;BME280;27468;47.460;19.034;2024-01-16T10:32:28;99932.94;;;3.97;45.33
41800;BME280;27468;47.460;19.034;2024-01-16T10:37:40;99942.50;;;3.95;45.01
41800;BME280;27468;47.460;19.034;2024-01-16T10:40:07;99953.81;;;3.97;45.02
41800;BME280;27468;47.460;19.034;2024-01-16T10:42:33;99974.63;;;4.05;44.78
41800;BME280;27468;47.460;19.034;2024-01-16T10:44:58;99952.94;;;3.85;44.96
41800;BME280;27468;47.460;19.034;2024-01-16T10:47:23;99965.97;;;3.88;45.17
41800;BME280;27468;47.460;19.034;2024-01-16T10:49:49;99984.22;;;4.02;45.10
41800;BME280;27468;47.460;19.034;2024-01-16T10:52:14;99961.63;;;3.90;45.62
41800;BME280;27468;47.460;19.034;2024-01-16T10:54:41;99954.69;;;4.03;45.40
41800;BME280;27468;47.460;19.034;2024-01-16T10:57:08;99945.13;;;3.98;45.50
41800;BME280;27468;47.460;19.034;2024-01-16T10:59:47;99959.00;;;4.13;45.18
41800;BME280;27468;47.460;19.034;2024-01-16T11:02:14;99967.69;;;4.21;45.11
41800;BME280;27468;47.460;19.034;2024-01-16T11:04:42;99975.50;;;4.24;45.26
41800;BME280;27468;47.460;19.034;2024-01-16T11:07:08;99948.56;;;4.07;45.06
41800;BME280;27468;47.460;19.034;2024-01-16T11:09:34;99958.13;;;4.23;45.38
41800;BME280;27468;47.460;19.034;2024-01-16T11:12:00;99941.59;;;4.16;44.96
41800;BME280;27468;47.460;19.034;2024-01-16T11:14:26;99944.19;;;4.19;45.00
41800;BME280;27468;47.460;19.034;2024-01-16T11:16:53;99934.63;;;4.18;45.10
41800;BME280;27468;47.460;19.034;2024-01-16T11:19:19;99940.72;;;4.22;45.34
41800;BME280;27468;47.460;19.034;2024-01-16T11:21:45;99941.59;;;4.24;45.26
41800;BME280;27468;47.460;19.034;2024-01-16T11:24:12;99967.69;;;4.35;45.34
41800;BME280;27468;47.460;19.034;2024-01-16T11:26:40;99925.94;;;4.22;45.26
41800;BME280;27468;47.460;19.034;2024-01-16T11:31:53;99946.81;;;4.35;44.62
41800;BME280;27468;47.460;19.034;2024-01-16T11:37:07;99956.34;;;4.40;44.41
41800;BME280;27468;47.460;19.034;2024-01-16T11:39:33;99948.53;;;4.45;44.17
41800;BME280;27468;47.460;19.034;2024-01-16T11:41:59;99935.50;;;4.36;44.13
41800;BME280;27468;47.460;19.034;2024-01-16T11:47:05;99970.28;;;4.44;44.08
41800;BME280;27468;47.460;19.034;2024-01-16T11:49:31;99958.97;;;4.39;44.14
41800;BME280;27468;47.460;19.034;2024-01-16T11:51:59;99972.00;;;4.45;43.79
41800;BME280;27468;47.460;19.034;2024-01-16T11:54:25;99953.75;;;4.39;44.08
41800;BME280;27468;47.460;19.034;2024-01-16T11:59:59;99980.72;;;4.51;43.44
41800;BME280;27468;47.460;19.034;2024-01-16T12:02:57;99941.59;;;4.33;43.29
41800;BME280;27468;47.460;19.034;2024-01-16T12:05:26;99936.38;;;4.27;43.24
41800;BME280;27468;47.460;19.034;2024-01-16T12:07:53;99957.22;;;4.44;42.98
41800;BME280;27468;47.460;19.034;2024-01-16T12:10:23;99949.41;;;4.35;43.10
41800;BME280;27468;47.460;19.034;2024-01-16T12:12:50;99922.47;;;4.25;42.50
41800;BME280;27468;47.460;19.034;2024-01-16T12:15:20;99972.00;;;4.43;42.84
41800;BME280;27468;47.460;19.034;2024-01-16T12:18:00;99940.72;;;4.34;42.61
41800;BME280;27468;47.460;19.034;2024-01-16T12:20:27;99961.56;;;4.40;42.41
41800;BME280;27468;47.460;19.034;2024-01-16T12:23:06;99905.94;;;4.23;41.94
41800;BME280;27468;47.460;19.034;2024-01-16T12:25:36;99965.06;;;4.47;42.80
41800;BME280;27468;47.460;19.034;2024-01-16T12:28:03;99953.72;;;4.51;42.25
41800;BME280;27468;47.460;19.034;2024-01-16T12:30:31;99962.44;;;4.54;42.61
41800;BME280;27468;47.460;19.034;2024-01-16T12:35:28;99955.47;;;4.49;42.30
41800;BME280;27468;47.460;19.034;2024-01-16T12:38:03;99943.28;;;4.48;42.42
41800;BME280;27468;47.460;19.034;2024-01-16T12:40:31;99969.34;;;4.63;42.30
41800;BME280;27468;47.460;19.034;2024-01-16T12:42:57;99959.75;;;4.68;42.89
41800;BME280;27468;47.460;19.034;2024-01-16T12:45:22;99932.81;;;4.60;43.10
41800;BME280;27468;47.460;19.034;2024-01-16T12:47:54;99921.47;;;4.67;41.58
41800;BME280;27468;47.460;19.034;2024-01-16T12:50:24;99957.09;;;4.83;41.45
41800;BME280;27468;47.460;19.034;2024-01-16T12:52:50;99957.09;;;4.86;39.83
41800;BME280;27468;47.460;19.034;2024-01-16T12:55:16;99969.31;;;4.75;39.72
41800;BME280;27468;47.460;19.034;2024-01-16T12:57:42;99931.13;;;4.35;39.96
41800;BME280;27468;47.460;19.034;2024-01-16T13:00:24;99928.53;;;4.36;39.84
41800;BME280;27468;47.460;19.034;2024-01-16T13:02:51;99958.97;;;4.40;40.10
41800;BME280;27468;47.460;19.034;2024-01-16T13:05:17;99953.75;;;4.36;39.79
41800;BME280;27468;47.460;19.034;2024-01-16T13:07:43;99922.47;;;4.13;39.87
41800;BME280;27468;47.460;19.034;2024-01-16T13:10:09;99966.81;;;4.37;39.97